Time,TemperatureF,DewpointF,PressureIn,WindDirection,WindDirectionDegrees,WindSpeedMPH,WindSpeedGustMPH,Humidity,HourlyPrecipIn,Conditions,Clouds,dailyrainin,SoftwareType,DateUTC
2013-01-02 00:02:00,14.0,5.0,30.31,WNW,287,0.0,1.0,66,0.00,,,0.00,,2013-01-02 06:02:00,
2013-01-02 00:12:00,14.0,5.0,30.31,WNW,287,0.0,1.0,66,0.00,,,0.00,,2013-01-02 06:12:00,
2013-01-02 00:22:00,14.0,5.0,30.30,West,271,2.0,5.0,66,0.00,,,0.00,,2013-01-02 06:22:00,
2013-01-02 00:32:00,15.0,5.0,30.29,West,268,1.0,4.0,65,0.00,,,0.00,,2013-01-02 06:32:00,
2013-01-02 00:42:00,15.0,5.0,30.29,West,268,1.0,4.0,65,0.00,,,0.00,,2013-01-02 06:42:00,
2013-01-02 00:52:00,14.0,4.0,30.29,West,268,2.0,5.0,65,0.00,,,0.00,,2013-01-02 06:52:00,
2013-01-02 01:02:00,15.0,5.0,30.28,West,263,1.0,4.0,65,0.00,,,0.00,,2013-01-02 07:02:00,
2013-01-02 01:12:00,15.0,5.0,30.28,West,263,1.0,4.0,65,0.00,,,0.00,,2013-01-02 07:12:00,
2013-01-02 01:22:00,14.0,4.0,30.29,West,261,2.0,5.0,65,0.00,,,0.00,,2013-01-02 07:22:00,
2013-01-02 01:32:00,14.0,5.0,30.27,West,261,2.0,5.0,67,0.00,,,0.00,,2013-01-02 07:32:00,
2013-01-02 01:42:00,14.0,5.0,30.27,West,261,2.0,5.0,67,0.00,,,0.00,,2013-01-02 07:42:00,
2013-01-02 01:52:00,14.0,6.0,30.27,West,260,0.0,2.0,69,0.00,,,0.00,,2013-01-02 07:52:00,
2013-01-02 02:02:00,14.0,6.0,30.27,West,259,2.0,4.0,70,0.00,,,0.00,,2013-01-02 08:02:00,
2013-01-02 02:11:00,14.0,6.0,30.27,West,259,2.0,4.0,70,0.00,,,0.00,,2013-01-02 08:11:00,
2013-01-02 02:22:00,14.0,7.0,30.26,WSW,258,2.0,2.0,72,0.00,,,0.00,,2013-01-02 08:22:00,
2013-01-02 02:32:00,14.0,7.0,30.26,SSW,199,1.0,3.0,73,0.00,,,0.00,,2013-01-02 08:32:00,
2013-01-02 02:42:00,14.0,7.0,30.26,SSW,199,1.0,3.0,73,0.00,,,0.00,,2013-01-02 08:42:00,
2013-01-02 02:52:00,14.0,7.0,30.25,SSW,196,1.0,2.0,73,0.00,,,0.00,,2013-01-02 08:52:00,
2013-01-02 03:02:00,13.0,7.0,30.25,SSW,203,1.0,3.0,77,0.00,,,0.00,,2013-01-02 09:02:00,
2013-01-02 03:12:00,13.0,7.0,30.25,SSW,203,1.0,3.0,77,0.00,,,0.00,,2013-01-02 09:12:00,
2013-01-02 03:22:00,14.0,9.0,30.25,SSW,205,1.0,5.0,80,0.00,,,0.00,,2013-01-02 09:22:00,
2013-01-02 03:32:00,14.0,8.0,30.25,SSW,210,2.0,4.0,77,0.00,,,0.00,,2013-01-02 09:32:00,
2013-01-02 03:43:00,14.0,8.0,30.25,SSW,210,2.0,4.0,77,0.00,,,0.00,,2013-01-02 09:43:00,
2013-01-02 03:52:00,14.0,8.0,30.25,SW,218,2.0,5.0,78,0.00,,,0.00,,2013-01-02 09:52:00,
2013-01-02 04:02:00,15.0,10.0,30.24,SSW,209,2.0,5.0,79,0.00,,,0.00,,2013-01-02 10:02:00,
2013-01-02 04:12:00,15.0,10.0,30.24,SSW,207,2.0,4.0,80,0.00,,,0.00,,2013-01-02 10:12:00,
2013-01-02 04:22:00,15.0,10.0,30.24,SSW,207,2.0,4.0,80,0.00,,,0.00,,2013-01-02 10:22:00,
2013-01-02 04:32:00,14.0,9.0,30.24,SSW,207,1.0,4.0,80,0.00,,,0.00,,2013-01-02 10:32:00,
2013-01-02 04:42:00,14.0,9.0,30.24,SSW,207,1.0,4.0,80,0.00,,,0.00,,2013-01-02 10:42:00,
2013-01-02 04:52:00,14.0,9.0,30.24,SSW,207,1.0,3.0,80,0.00,,,0.00,,2013-01-02 10:52:00,
2013-01-02 05:02:00,15.0,11.0,30.24,SW,222,3.0,5.0,82,0.00,,,0.00,,2013-01-02 11:02:00,
2013-01-02 05:12:00,15.0,11.0,30.24,SW,222,3.0,5.0,82,0.00,,,0.00,,2013-01-02 11:12:00,
2013-01-02 05:22:00,15.0,10.0,30.23,SSW,205,2.0,5.0,81,0.00,,,0.00,,2013-01-02 11:22:00,
2013-01-02 05:32:00,13.0,9.0,30.24,SSW,205,1.0,5.0,82,0.00,,,0.00,,2013-01-02 11:32:00,
2013-01-02 05:42:00,13.0,9.0,30.24,SSW,205,1.0,5.0,82,0.00,,,0.00,,2013-01-02 11:42:00,
2013-01-02 05:52:00,14.0,10.0,30.24,SW,226,2.0,4.0,84,0.00,,,0.00,,2013-01-02 11:52:00,
2013-01-02 06:02:00,16.0,12.0,30.24,WSW,241,1.0,5.0,83,0.00,,,0.00,,2013-01-02 12:02:00,
2013-01-02 06:12:00,16.0,12.0,30.24,WSW,241,1.0,5.0,83,0.00,,,0.00,,2013-01-02 12:12:00,
2013-01-02 06:22:00,16.0,11.0,30.23,WSW,238,2.0,4.0,82,0.00,,,0.00,,2013-01-02 12:22:00,
2013-01-02 06:32:00,16.0,11.0,30.22,SW,214,1.0,2.0,81,0.00,,,0.00,,2013-01-02 12:32:00,
2013-01-02 06:42:00,16.0,11.0,30.22,SW,214,1.0,2.0,81,0.00,,,0.00,,2013-01-02 12:42:00,
2013-01-02 06:53:00,16.0,12.0,30.22,SW,219,2.0,7.0,83,0.00,,,0.00,,2013-01-02 12:53:00,
2013-01-02 07:02:00,16.0,11.0,30.22,SW,224,2.0,4.0,82,0.00,,,0.00,,2013-01-02 13:02:00,
2013-01-02 07:12:00,16.0,11.0,30.22,SW,224,2.0,4.0,82,0.00,,,0.00,,2013-01-02 13:12:00,
2013-01-02 07:22:00,16.0,12.0,30.22,SW,223,1.0,3.0,83,0.00,,,0.00,,2013-01-02 13:22:00,
2013-01-02 07:32:00,16.0,12.0,30.22,SW,218,1.0,2.0,83,0.00,,,0.00,,2013-01-02 13:32:00,
2013-01-02 07:42:00,16.0,12.0,30.22,SW,218,1.0,2.0,83,0.00,,,0.00,,2013-01-02 13:42:00,
2013-01-02 07:52:00,16.0,12.0,30.21,SW,218,2.0,2.0,83,0.00,,,0.00,,2013-01-02 13:52:00,
2013-01-02 08:02:00,16.0,12.0,30.21,SSW,206,2.0,4.0,83,0.00,,,0.00,,2013-01-02 14:02:00,
2013-01-02 08:12:00,16.0,12.0,30.21,SSW,206,2.0,4.0,83,0.00,,,0.00,,2013-01-02 14:12:00,
2013-01-02 08:22:00,15.0,10.0,30.22,SSW,201,1.0,2.0,79,0.00,,,0.00,,2013-01-02 14:22:00,
2013-01-02 08:33:00,13.0,9.0,30.21,SE,141,2.0,4.0,82,0.00,,,0.00,,2013-01-02 14:33:00,
2013-01-02 08:42:00,13.0,9.0,30.21,SE,141,2.0,4.0,82,0.00,,,0.00,,2013-01-02 14:42:00,
2013-01-02 08:53:00,14.0,10.0,30.20,South,171,2.0,4.0,82,0.00,,,0.00,,2013-01-02 14:53:00,
2013-01-02 09:03:00,15.0,10.0,30.20,South,181,2.0,6.0,79,0.00,,,0.00,,2013-01-02 15:03:00,
2013-01-02 09:12:00,15.0,10.0,30.20,South,181,2.0,6.0,79,0.00,,,0.00,,2013-01-02 15:12:00,
2013-01-02 09:22:00,16.0,11.0,30.20,South,175,0.0,5.0,79,0.00,,,0.00,,2013-01-02 15:22:00,
2013-01-02 09:33:00,17.0,12.0,30.22,SSW,208,3.0,4.0,79,0.00,,,0.00,,2013-01-02 15:33:00,
2013-01-02 09:42:00,17.0,12.0,30.22,SSW,208,3.0,4.0,79,0.00,,,0.00,,2013-01-02 15:42:00,
2013-01-02 09:52:00,19.0,13.0,30.21,SSW,205,1.0,4.0,78,0.00,,,0.00,,2013-01-02 15:52:00,
2013-01-02 10:03:00,21.0,14.0,30.22,SSW,204,2.0,4.0,74,0.00,,,0.00,,2013-01-02 16:03:00,
2013-01-02 10:12:00,21.0,14.0,30.22,SSW,204,2.0,4.0,74,0.00,,,0.00,,2013-01-02 16:12:00,
2013-01-02 10:22:00,21.0,15.0,30.22,SW,223,2.0,4.0,76,0.00,,,0.00,,2013-01-02 16:22:00,
2013-01-02 10:33:00,23.0,16.0,30.22,WSW,246,7.0,11.0,74,0.00,,,0.00,,2013-01-02 16:33:00,
2013-01-02 10:42:00,23.0,16.0,30.22,WSW,246,7.0,11.0,74,0.00,,,0.00,,2013-01-02 16:42:00,
2013-01-02 10:53:00,23.0,16.0,30.22,WNW,286,4.0,9.0,74,0.00,,,0.00,,2013-01-02 16:53:00,
2013-01-02 11:03:00,23.0,16.0,30.22,WSW,253,7.0,10.0,73,0.00,,,0.00,,2013-01-02 17:03:00,
2013-01-02 11:12:00,24.0,16.0,30.22,WSW,253,4.0,10.0,72,0.00,,,0.00,,2013-01-02 17:12:00,
2013-01-02 11:23:00,24.0,16.0,30.22,WSW,253,4.0,10.0,72,0.00,,,0.00,,2013-01-02 17:23:00,
2013-01-02 11:33:00,25.0,17.0,30.21,SW,230,4.0,13.0,72,0.00,,,0.00,,2013-01-02 17:33:00,
2013-01-02 11:43:00,25.0,17.0,30.21,SW,230,4.0,13.0,72,0.00,,,0.00,,2013-01-02 17:43:00,
2013-01-02 11:53:00,25.0,17.0,30.21,WSW,238,6.0,12.0,70,0.00,,,0.00,,2013-01-02 17:53:00,
2013-01-02 12:02:00,26.0,17.0,30.20,West,267,6.0,11.0,69,0.00,,,0.00,,2013-01-02 18:02:00,
2013-01-02 12:12:00,26.0,17.0,30.20,West,267,6.0,11.0,69,0.00,,,0.00,,2013-01-02 18:12:00,
2013-01-02 12:22:00,26.0,17.0,30.20,West,261,7.0,11.0,68,0.00,,,0.00,,2013-01-02 18:22:00,
2013-01-02 12:33:00,27.0,18.0,30.18,SW,236,5.0,9.0,67,0.00,,,0.00,,2013-01-02 18:33:00,
2013-01-02 12:42:00,27.0,18.0,30.18,SW,236,5.0,9.0,67,0.00,,,0.00,,2013-01-02 18:42:00,
2013-01-02 12:53:00,28.0,18.0,30.17,WSW,247,5.0,9.0,65,0.00,,,0.00,,2013-01-02 18:53:00,
2013-01-02 13:03:00,29.0,18.0,30.17,West,273,5.0,9.0,63,0.00,,,0.00,,2013-01-02 19:03:00,
2013-01-02 13:12:00,29.0,18.0,30.17,West,273,5.0,9.0,63,0.00,,,0.00,,2013-01-02 19:12:00,
2013-01-02 13:22:00,29.0,18.0,30.16,West,276,7.0,10.0,62,0.00,,,0.00,,2013-01-02 19:22:00,
2013-01-02 13:33:00,28.0,17.0,30.16,WSW,255,5.0,10.0,64,0.00,,,0.00,,2013-01-02 19:33:00,
2013-01-02 13:42:00,28.0,17.0,30.16,WSW,255,5.0,10.0,64,0.00,,,0.00,,2013-01-02 19:42:00,
2013-01-02 13:52:00,28.0,18.0,30.16,West,274,5.0,8.0,65,0.00,,,0.00,,2013-01-02 19:52:00,
2013-01-02 14:03:00,28.0,18.0,30.16,WNW,285,6.0,11.0,66,0.00,,,0.00,,2013-01-02 20:03:00,
2013-01-02 14:12:00,28.0,18.0,30.16,WNW,285,6.0,11.0,66,0.00,,,0.00,,2013-01-02 20:12:00,
2013-01-02 14:22:00,28.0,18.0,30.17,West,275,7.0,11.0,66,0.00,,,0.00,,2013-01-02 20:22:00,
2013-01-02 14:33:00,28.0,18.0,30.16,West,265,4.0,9.0,66,0.00,,,0.00,,2013-01-02 20:33:00,
2013-01-02 14:42:00,28.0,18.0,30.16,West,265,4.0,9.0,66,0.00,,,0.00,,2013-01-02 20:42:00,
2013-01-02 14:53:00,29.0,19.0,30.16,West,276,3.0,7.0,65,0.00,,,0.00,,2013-01-02 20:53:00,
2013-01-02 15:03:00,29.0,19.0,30.17,WSW,244,5.0,10.0,65,0.00,,,0.00,,2013-01-02 21:03:00,
2013-01-02 15:12:00,29.0,19.0,30.17,WSW,244,5.0,10.0,65,0.00,,,0.00,,2013-01-02 21:12:00,
2013-01-02 15:22:00,29.0,19.0,30.17,West,274,5.0,10.0,66,0.00,,,0.00,,2013-01-02 21:22:00,
2013-01-02 15:32:00,28.0,19.0,30.18,WNW,284,4.0,12.0,68,0.00,,,0.00,,2013-01-02 21:32:00,
2013-01-02 15:42:00,28.0,19.0,30.18,WNW,284,4.0,12.0,68,0.00,,,0.00,,2013-01-02 21:42:00,
2013-01-02 15:52:00,28.0,19.0,30.18,West,266,5.0,8.0,68,0.00,,,0.00,,2013-01-02 21:52:00,
2013-01-02 16:03:00,28.0,19.0,30.19,West,275,5.0,9.0,69,0.00,,,0.00,,2013-01-02 22:03:00,
2013-01-02 16:12:00,28.0,19.0,30.19,West,275,5.0,9.0,69,0.00,,,0.00,,2013-01-02 22:12:00,
2013-01-02 16:22:00,28.0,20.0,30.19,West,276,3.0,9.0,70,0.00,,,0.00,,2013-01-02 22:22:00,
2013-01-02 16:32:00,27.0,19.0,30.20,West,264,4.0,7.0,70,0.00,,,0.00,,2013-01-02 22:32:00,
2013-01-02 16:42:00,27.0,19.0,30.20,West,264,4.0,7.0,70,0.00,,,0.00,,2013-01-02 22:42:00,
2013-01-02 16:52:00,27.0,19.0,30.21,West,281,3.0,7.0,71,0.00,,,0.00,,2013-01-02 22:52:00,
2013-01-02 17:03:00,27.0,19.0,30.21,West,264,2.0,5.0,72,0.00,,,0.00,,2013-01-02 23:03:00,
2013-01-02 17:12:00,27.0,19.0,30.21,West,264,1.0,5.0,72,0.00,,,0.00,,2013-01-02 23:12:00,
2013-01-02 17:22:00,27.0,19.0,30.21,West,264,1.0,5.0,72,0.00,,,0.00,,2013-01-02 23:22:00,
2013-01-02 17:33:00,27.0,20.0,30.21,West,264,1.0,2.0,73,0.00,,,0.00,,2013-01-02 23:33:00,
2013-01-02 17:42:00,27.0,20.0,30.21,West,264,1.0,2.0,73,0.00,,,0.00,,2013-01-02 23:42:00,
2013-01-02 17:52:00,27.0,20.0,30.22,West,264,1.0,1.0,73,0.00,,,0.00,,2013-01-02 23:52:00,
2013-01-02 18:02:00,27.0,20.0,30.23,West,264,1.0,1.0,74,0.00,,,0.00,,2013-01-03 00:02:00,
2013-01-02 18:12:00,27.0,20.0,30.23,West,264,1.0,1.0,74,0.00,,,0.00,,2013-01-03 00:12:00,
2013-01-02 18:22:00,27.0,20.0,30.23,West,264,0.0,1.0,74,0.00,,,0.00,,2013-01-03 00:22:00,
2013-01-02 18:38:00,26.0,19.0,30.23,West,264,1.0,1.0,76,0.00,,,0.00,,2013-01-03 00:38:00,
2013-01-02 18:52:00,26.0,19.0,30.23,West,264,2.0,3.0,76,0.00,,,0.00,,2013-01-03 00:52:00,
2013-01-02 19:02:00,27.0,21.0,30.24,West,264,1.0,3.0,77,0.00,,,0.00,,2013-01-03 01:02:00,
2013-01-02 19:12:00,27.0,21.0,30.24,West,264,1.0,3.0,77,0.00,,,0.00,,2013-01-03 01:12:00,
2013-01-02 19:22:00,27.0,21.0,30.24,West,264,2.0,5.0,77,0.00,,,0.00,,2013-01-03 01:22:00,
2013-01-02 19:32:00,27.0,21.0,30.25,West,264,0.0,2.0,78,0.00,,,0.00,,2013-01-03 01:32:00,
2013-01-02 19:42:00,27.0,21.0,30.25,West,264,0.0,2.0,78,0.00,,,0.00,,2013-01-03 01:42:00,
2013-01-02 19:52:00,27.0,21.0,30.24,West,264,0.0,0.0,78,0.00,,,0.00,,2013-01-03 01:52:00,
2013-01-02 20:02:00,26.0,20.0,30.25,West,264,2.0,2.0,79,0.00,,,0.00,,2013-01-03 02:02:00,
2013-01-02 20:12:00,26.0,20.0,30.25,West,264,2.0,2.0,79,0.00,,,0.00,,2013-01-03 02:12:00,
2013-01-02 20:22:00,26.0,21.0,30.26,West,264,0.0,1.0,80,0.00,,,0.00,,2013-01-03 02:22:00,
2013-01-02 20:33:00,26.0,20.0,30.25,West,264,0.0,2.0,79,0.00,,,0.00,,2013-01-03 02:33:00,
2013-01-02 20:42:00,26.0,20.0,30.25,West,264,0.0,2.0,79,0.00,,,0.00,,2013-01-03 02:42:00,
2013-01-02 20:52:00,26.0,20.0,30.25,West,264,0.0,2.0,79,0.00,,,0.00,,2013-01-03 02:52:00,
2013-01-02 21:02:00,27.0,21.0,30.27,West,263,2.0,4.0,79,0.00,,,0.00,,2013-01-03 03:02:00,
2013-01-02 21:12:00,27.0,21.0,30.27,West,260,2.0,4.0,79,0.00,,,0.00,,2013-01-03 03:12:00,
2013-01-02 21:22:00,27.0,21.0,30.27,West,260,2.0,4.0,79,0.00,,,0.00,,2013-01-03 03:22:00,
2013-01-02 21:46:00,27.0,21.0,30.27,WSW,256,4.0,7.0,79,0.00,,,0.00,,2013-01-03 03:46:00,
2013-01-02 21:52:00,27.0,21.0,30.27,West,261,1.0,3.0,79,0.00,,,0.00,,2013-01-03 03:52:00,
2013-01-02 22:02:00,27.0,21.0,30.27,West,261,1.0,2.0,79,0.00,,,0.00,,2013-01-03 04:02:00,
2013-01-02 22:12:00,27.0,21.0,30.27,West,261,1.0,2.0,79,0.00,,,0.00,,2013-01-03 04:12:00,
2013-01-02 22:22:00,27.0,22.0,30.27,West,261,1.0,2.0,80,0.00,,,0.00,,2013-01-03 04:22:00,
2013-01-02 22:32:00,27.0,22.0,30.28,West,261,1.0,4.0,80,0.00,,,0.00,,2013-01-03 04:32:00,
2013-01-02 22:42:00,27.0,22.0,30.28,West,261,1.0,4.0,80,0.00,,,0.00,,2013-01-03 04:42:00,
2013-01-02 22:52:00,27.0,22.0,30.28,West,261,2.0,3.0,80,0.00,,,0.00,,2013-01-03 04:52:00,
2013-01-02 23:03:00,27.0,22.0,30.29,West,260,0.0,1.0,80,0.00,,,0.00,,2013-01-03 05:03:00,
2013-01-02 23:12:00,27.0,22.0,30.29,West,261,0.0,0.0,81,0.00,,,0.00,,2013-01-03 05:12:00,
2013-01-02 23:22:00,27.0,22.0,30.29,West,261,0.0,0.0,81,0.00,,,0.00,,2013-01-03 05:22:00,
2013-01-02 23:33:00,27.0,22.0,30.29,West,261,0.0,0.0,81,0.00,,,0.00,,2013-01-03 05:33:00,
2013-01-02 23:42:00,27.0,22.0,30.29,West,261,0.0,0.0,81,0.00,,,0.00,,2013-01-03 05:42:00,
2013-01-02 23:52:00,27.0,22.0,30.29,West,260,0.0,0.0,81,0.00,,,0.00,,2013-01-03 05:52:00,